Etusivu
METAR-TAF:

METAR-TAF

Lentoasemat :

Stord, Norja

Leveyspiiri: 59-48N, Pituuspiiri: 005-21E, korkeus merenpinnasta: 49 m

Tämänhetkinen sää

Tämä raportti tehtiin 2 tuntia ja 44 minuuttia sitten, kello 17.20 UTC
Tuuli 13 kn luoteesta
Lämpötila 17°C
Kosteus 72%
Ilmanpaine 1012 hPa
Näkyvyys 10 km tai enemmän
Muutamia pilviä 3000 ft:n korkeudessa

METAR: ENSO 221720Z 31013KT 9999 FEW030 17/12 Q1012

Aika: 22:04 (20:04 UTC)

Sääennuste

Tämä raportti tehtiin 9 tuntia ja 4 minuuttia sitten, kello 11.00 UTC
Ennuste voimassa 22. päivästä klo 12 UTC - 22. päivään klo 18 UTC
Tuuli 12 kn pohjoisen/luoteesta
Näkyvyys 10 km tai enemmän
Muutamia pilviä 2000 ft:n korkeudessa

TAF: ENSO 221100Z 2212/2218 33012KT 9999 FEW020

Säähavainnot ja -ennusteet yli 4000 lentoasemalta (METAR- ja TAF-raportit).

Käytössä olevat sääasemat on merkitty karttaan keltaisilla ja punaisilla pisteillä.

Aseta hiiri pisteen päälle nähdäksesi sääaseman nimen.

Klikkaa sitten nähdäksesi säähavainnot ja -ennusteet.

Kartan vaihtaminen: klikkaa mustalla rastilla varustettuja vihreitä pisteitä, niin voit zoomata sisään; viivalla varustettua vihreää pistettä, niin voit zoomata ulos tai vihreitä nuolia, niin pääset viereisille kartoille.


METAR-TAF: